sensor_id;sensor_type;location;lat;lon;timestamp;pressure;altitude;pressure_sealevel;temperature;humidity
32083;BME280;18597;48.328;7.932;2023-11-19T00:01:41;99628.63;;;9.97;100.00
32083;BME280;18597;48.328;7.932;2023-11-19T00:04:07;99628.00;;;10.05;100.00
32083;BME280;18597;48.328;7.932;2023-11-19T00:06:33;99625.59;;;10.01;100.00
32083;BME280;18597;48.328;7.932;2023-11-19T00:08:59;99611.69;;;9.98;100.00
32083;BME280;18597;48.328;7.932;2023-11-19T00:11:25;99609.97;;;9.97;100.00
32083;BME280;18597;48.328;7.932;2023-11-19T00:13:51;99601.00;;;9.98;100.00
32083;BME280;18597;48.328;7.932;2023-11-19T00:16:17;99592.59;;;10.02;100.00
32083;BME280;18597;48.328;7.932;2023-11-19T00:18:43;99611.16;;;10.04;100.00
32083;BME280;18597;48.328;7.932;2023-11-19T00:21:10;99606.91;;;10.01;100.00
32083;BME280;18597;48.328;7.932;2023-11-19T00:23:36;99593.00;;;9.98;100.00
32083;BME280;18597;48.328;7.932;2023-11-19T00:26:02;99584.22;;;10.07;100.00
32083;BME280;18597;48.328;7.932;2023-11-19T00:28:32;99604.31;;;10.11;100.00
32083;BME280;18597;48.328;7.932;2023-11-19T00:30:59;99593.78;;;10.10;100.00
32083;BME280;18597;48.328;7.932;2023-11-19T00:33:24;99592.66;;;10.12;100.00
32083;BME280;18597;48.328;7.932;2023-11-19T00:35:50;99589.03;;;10.13;100.00
32083;BME280;18597;48.328;7.932;2023-11-19T00:38:16;99598.34;;;10.19;100.00
32083;BME280;18597;48.328;7.932;2023-11-19T00:40:42;99586.56;;;10.21;100.00
32083;BME280;18597;48.328;7.932;2023-11-19T00:43:08;99584.53;;;10.14;100.00
32083;BME280;18597;48.328;7.932;2023-11-19T00:45:34;99582.22;;;10.20;100.00
32083;BME280;18597;48.328;7.932;2023-11-19T00:48:00;99589.84;;;10.25;100.00
32083;BME280;18597;48.328;7.932;2023-11-19T00:50:26;99580.00;;;10.25;100.00
32083;BME280;18597;48.328;7.932;2023-11-19T00:52:51;99583.66;;;10.24;100.00
32083;BME280;18597;48.328;7.932;2023-11-19T00:55:17;99579.88;;;10.27;100.00
32083;BME280;18597;48.328;7.932;2023-11-19T00:57:43;99574.53;;;10.27;100.00
32083;BME280;18597;48.328;7.932;2023-11-19T01:00:09;99567.69;;;10.34;100.00
32083;BME280;18597;48.328;7.932;2023-11-19T01:02:45;99566.13;;;10.32;100.00
32083;BME280;18597;48.328;7.932;2023-11-19T01:05:11;99553.34;;;10.35;100.00
32083;BME280;18597;48.328;7.932;2023-11-19T01:07:40;99556.16;;;10.34;100.00
32083;BME280;18597;48.328;7.932;2023-11-19T01:10:06;99554.94;;;10.38;100.00
32083;BME280;18597;48.328;7.932;2023-11-19T01:12:34;99545.66;;;10.42;100.00
32083;BME280;18597;48.328;7.932;2023-11-19T01:15:00;99540.31;;;10.42;100.00
32083;BME280;18597;48.328;7.932;2023-11-19T01:17:26;99554.94;;;10.38;100.00
32083;BME280;18597;48.328;7.932;2023-11-19T01:19:52;99561.13;;;10.38;100.00
32083;BME280;18597;48.328;7.932;2023-11-19T01:22:18;99561.84;;;10.40;100.00
32083;BME280;18597;48.328;7.932;2023-11-19T01:24:44;99561.13;;;10.38;100.00
32083;BME280;18597;48.328;7.932;2023-11-19T01:27:10;99569.00;;;10.40;100.00
32083;BME280;18597;48.328;7.932;2023-11-19T01:29:36;99568.53;;;10.35;100.00
32083;BME280;18597;48.328;7.932;2023-11-19T01:32:04;99568.53;;;10.35;100.00
32083;BME280;18597;48.328;7.932;2023-11-19T01:34:30;99561.13;;;10.38;100.00
32083;BME280;18597;48.328;7.932;2023-11-19T01:36:57;99565.66;;;10.47;100.00
32083;BME280;18597;48.328;7.932;2023-11-19T01:39:23;99571.28;;;10.44;100.00
32083;BME280;18597;48.328;7.932;2023-11-19T01:41:48;99567.03;;;10.42;100.00
32083;BME280;18597;48.328;7.932;2023-11-19T01:44:15;99573.81;;;10.46;100.00
32083;BME280;18597;48.328;7.932;2023-11-19T01:46:44;99566.97;;;10.53;100.00
32083;BME280;18597;48.328;7.932;2023-11-19T01:49:11;99568.94;;;10.51;100.00
32083;BME280;18597;48.328;7.932;2023-11-19T01:51:39;99566.28;;;10.51;100.00
32083;BME280;18597;48.328;7.932;2023-11-19T01:54:06;99544.91;;;10.51;100.00
32083;BME280;18597;48.328;7.932;2023-11-19T01:56:33;99544.91;;;10.51;100.00
32083;BME280;18597;48.328;7.932;2023-11-19T01:59:00;99535.63;;;10.55;100.00
32083;BME280;18597;48.328;7.932;2023-11-19T02:01:27;99535.91;;;10.52;100.00
32083;BME280;18597;48.328;7.932;2023-11-19T02:03:53;99545.75;;;10.51;100.00
32083;BME280;18597;48.328;7.932;2023-11-19T02:06:19;99551.19;;;10.50;100.00
32083;BME280;18597;48.328;7.932;2023-11-19T02:08:45;99557.50;;;10.49;100.00
32083;BME280;18597;48.328;7.932;2023-11-19T02:11:11;99555.13;;;10.46;100.00
32083;BME280;18597;48.328;7.932;2023-11-19T02:13:38;99558.50;;;10.48;100.00
32083;BME280;18597;48.328;7.932;2023-11-19T02:16:04;99566.78;;;10.45;100.00
32083;BME280;18597;48.328;7.932;2023-11-19T02:18:30;99567.69;;;10.55;100.00
32083;BME280;18597;48.328;7.932;2023-11-19T02:20:58;99555.88;;;10.57;100.00
32083;BME280;18597;48.328;7.932;2023-11-19T02:23:27;99552.31;;;10.47;100.00
32083;BME280;18597;48.328;7.932;2023-11-19T02:28:36;99551.19;;;10.50;100.00
32083;BME280;18597;48.328;7.932;2023-11-19T02:31:03;99564.81;;;10.47;100.00
32083;BME280;18597;48.328;7.932;2023-11-19T02:33:30;99558.44;;;10.59;100.00
32083;BME280;18597;48.328;7.932;2023-11-19T02:35:56;99556.53;;;10.50;100.00
32083;BME280;18597;48.328;7.932;2023-11-19T02:38:22;99564.53;;;10.50;100.00
32083;BME280;18597;48.328;7.932;2023-11-19T02:40:49;99569.03;;;10.49;100.00
32083;BME280;18597;48.328;7.932;2023-11-19T02:43:15;99570.50;;;10.53;100.00
32083;BME280;18597;48.328;7.932;2023-11-19T02:45:40;99563.03;;;10.57;100.00
32083;BME280;18597;48.328;7.932;2023-11-19T02:48:07;99565.84;;;10.55;100.00
32083;BME280;18597;48.328;7.932;2023-11-19T02:50:34;99555.16;;;10.55;100.00
32083;BME280;18597;48.328;7.932;2023-11-19T02:53:00;99552.91;;;10.51;100.00
32083;BME280;18597;48.328;7.932;2023-11-19T02:55:26;99542.25;;;10.61;100.00
32083;BME280;18597;48.328;7.932;2023-11-19T02:57:56;99570.63;;;10.52;100.00
32083;BME280;18597;48.328;7.932;2023-11-19T03:00:24;99565.28;;;10.52;100.00
32083;BME280;18597;48.328;7.932;2023-11-19T03:02:57;99555.03;;;10.57;100.00
32083;BME280;18597;48.328;7.932;2023-11-19T03:05:26;99539.13;;;10.55;100.00
32083;BME280;18597;48.328;7.932;2023-11-19T03:07:52;99552.78;;;10.52;100.00
32083;BME280;18597;48.328;7.932;2023-11-19T03:10:19;99550.28;;;10.61;100.00
32083;BME280;18597;48.328;7.932;2023-11-19T03:12:45;99540.97;;;10.55;100.00
32083;BME280;18597;48.328;7.932;2023-11-19T03:15:12;99547.56;;;10.51;100.00
32083;BME280;18597;48.328;7.932;2023-11-19T03:17:39;99550.41;;;10.59;100.00
32083;BME280;18597;48.328;7.932;2023-11-19T03:20:07;99541.41;;;10.60;100.00
32083;BME280;18597;48.328;7.932;2023-11-19T03:22:41;99550.31;;;10.70;100.00
32083;BME280;18597;48.328;7.932;2023-11-19T03:25:08;99577.84;;;10.61;100.00
32083;BME280;18597;48.328;7.932;2023-11-19T03:27:36;99570.09;;;10.58;100.00
32083;BME280;18597;48.328;7.932;2023-11-19T03:30:09;99569.38;;;10.56;100.00
32083;BME280;18597;48.328;7.932;2023-11-19T03:32:37;99570.09;;;10.58;100.00
32083;BME280;18597;48.328;7.932;2023-11-19T03:35:05;99571.97;;;10.67;100.00
32083;BME280;18597;48.328;7.932;2023-11-19T03:37:34;99563.34;;;10.64;100.00
32083;BME280;18597;48.328;7.932;2023-11-19T03:40:00;99569.53;;;10.64;100.00
32083;BME280;18597;48.328;7.932;2023-11-19T03:42:26;99568.47;;;10.67;100.00
32083;BME280;18597;48.328;7.932;2023-11-19T03:44:53;99561.59;;;10.74;100.00
32083;BME280;18597;48.328;7.932;2023-11-19T03:47:20;99553.69;;;10.72;100.00
32083;BME280;18597;48.328;7.932;2023-11-19T03:49:49;99551.75;;;10.74;100.00
32083;BME280;18597;48.328;7.932;2023-11-19T03:52:16;99546.41;;;10.74;100.00
32083;BME280;18597;48.328;7.932;2023-11-19T03:54:43;99548.66;;;10.79;100.00
32083;BME280;18597;48.328;7.932;2023-11-19T03:57:09;99527.16;;;10.80;100.00
32083;BME280;18597;48.328;7.932;2023-11-19T03:59:37;99536.16;;;10.79;100.00
32083;BME280;18597;48.328;7.932;2023-11-19T04:02:03;99557.53;;;10.79;100.00
32083;BME280;18597;48.328;7.932;2023-11-19T04:04:29;99571.72;;;10.80;100.00
32083;BME280;18597;48.328;7.932;2023-11-19T04:06:56;99596.19;;;10.75;100.00
32083;BME280;18597;48.328;7.932;2023-11-19T04:09:22;99566.28;;;10.81;100.00
32083;BME280;18597;48.328;7.932;2023-11-19T04:11:48;99553.44;;;10.75;100.00
32083;BME280;18597;48.328;7.932;2023-11-19T04:14:14;99558.19;;;10.72;100.00
32083;BME280;18597;48.328;7.932;2023-11-19T04:16:41;99567.69;;;10.86;100.00
32083;BME280;18597;48.328;7.932;2023-11-19T04:19:07;99575.53;;;10.77;100.00
32083;BME280;18597;48.328;7.932;2023-11-19T04:21:33;99557.53;;;10.79;100.00
32083;BME280;18597;48.328;7.932;2023-11-19T04:23:59;99565.81;;;10.76;100.00
32083;BME280;18597;48.328;7.932;2023-11-19T04:26:26;99566.97;;;10.83;100.00
32083;BME280;18597;48.328;7.932;2023-11-19T04:28:52;99567.50;;;10.77;100.00
32083;BME280;18597;48.328;7.932;2023-11-19T04:31:17;99577.22;;;10.78;100.00
32083;BME280;18597;48.328;7.932;2023-11-19T04:33:44;99582.69;;;10.77;100.00
32083;BME280;18597;48.328;7.932;2023-11-19T04:36:11;99581.31;;;10.82;100.00
32083;BME280;18597;48.328;7.932;2023-11-19T04:38:37;99585.09;;;10.80;100.00
32083;BME280;18597;48.328;7.932;2023-11-19T04:41:05;99587.19;;;10.76;100.00
32083;BME280;18597;48.328;7.932;2023-11-19T04:43:33;99573.69;;;10.78;100.00
32083;BME280;18597;48.328;7.932;2023-11-19T04:45:58;99573.44;;;10.81;100.00
32083;BME280;18597;48.328;7.932;2023-11-19T04:48:25;99573.72;;;10.88;100.00
32083;BME280;18597;48.328;7.932;2023-11-19T04:50:51;99570.63;;;10.82;100.00
32083;BME280;18597;48.328;7.932;2023-11-19T04:53:18;99574.84;;;10.85;100.00
32083;BME280;18597;48.328;7.932;2023-11-19T04:55:44;99581.19;;;10.84;100.00
32083;BME280;18597;48.328;7.932;2023-11-19T04:58:10;99581.19;;;10.84;100.00
32083;BME280;18597;48.328;7.932;2023-11-19T05:00:36;99590.75;;;10.87;100.00
32083;BME280;18597;48.328;7.932;2023-11-19T05:03:01;99581.94;;;10.96;100.00
32083;BME280;18597;48.328;7.932;2023-11-19T05:05:28;99567.84;;;10.94;100.00
32083;BME280;18597;48.328;7.932;2023-11-19T05:07:54;99564.09;;;11.06;100.00
32083;BME280;18597;48.328;7.932;2023-11-19T05:10:20;99563.69;;;11.10;100.00
32083;BME280;18597;48.328;7.932;2023-11-19T05:12:46;99571.97;;;11.07;100.00
32083;BME280;18597;48.328;7.932;2023-11-19T05:15:12;99583.28;;;11.11;100.00
32083;BME280;18597;48.328;7.932;2023-11-19T05:17:38;99580.16;;;11.06;100.00
32083;BME280;18597;48.328;7.932;2023-11-19T05:20:05;99590.38;;;11.01;100.00
32083;BME280;18597;48.328;7.932;2023-11-19T05:22:40;99577.44;;;10.96;100.00
32083;BME280;18597;48.328;7.932;2023-11-19T05:25:06;99579.38;;;10.94;100.00
32083;BME280;18597;48.328;7.932;2023-11-19T05:27:36;99579.63;;;10.81;100.00
32083;BME280;18597;48.328;7.932;2023-11-19T05:30:05;99568.81;;;10.83;100.00
32083;BME280;18597;48.328;7.932;2023-11-19T05:32:36;99576.41;;;10.88;100.00
32083;BME280;18597;48.328;7.932;2023-11-19T05:35:02;99572.03;;;10.87;100.00
32083;BME280;18597;48.328;7.932;2023-11-19T05:37:29;99575.69;;;10.86;100.00
32083;BME280;18597;48.328;7.932;2023-11-19T05:39:54;99572.19;;;10.85;100.00
32083;BME280;18597;48.328;7.932;2023-11-19T05:42:20;99571.66;;;10.91;100.00
32083;BME280;18597;48.328;7.932;2023-11-19T05:44:46;99576.19;;;11.00;100.00
32083;BME280;18597;48.328;7.932;2023-11-19T05:47:13;99568.69;;;10.94;100.00
32083;BME280;18597;48.328;7.932;2023-11-19T05:49:38;99569.53;;;10.95;100.00
32083;BME280;18597;48.328;7.932;2023-11-19T05:52:04;99572.81;;;11.08;100.00
32083;BME280;18597;48.328;7.932;2023-11-19T05:54:33;99569.59;;;11.04;100.00
32083;BME280;18597;48.328;7.932;2023-11-19T05:57:04;99575.06;;;11.03;100.00
32083;BME280;18597;48.328;7.932;2023-11-19T05:59:32;99572.56;;;11.11;100.00
32083;BME280;18597;48.328;7.932;2023-11-19T06:01:58;99574.13;;;11.14;100.00
32083;BME280;18597;48.328;7.932;2023-11-19T06:04:24;99567.38;;;11.19;100.00
32083;BME280;18597;48.328;7.932;2023-11-19T06:06:50;99571.22;;;11.26;100.00
32083;BME280;18597;48.328;7.932;2023-11-19T06:09:17;99565.88;;;11.26;100.00
32083;BME280;18597;48.328;7.932;2023-11-19T06:11:44;99570.22;;;11.37;100.00
32083;BME280;18597;48.328;7.932;2023-11-19T06:14:10;99571.63;;;11.31;100.00
32083;BME280;18597;48.328;7.932;2023-11-19T06:16:38;99555.03;;;11.37;100.00
32083;BME280;18597;48.328;7.932;2023-11-19T06:19:05;99547.31;;;11.44;100.00
32083;BME280;18597;48.328;7.932;2023-11-19T06:21:31;99552.94;;;11.51;100.00
32083;BME280;18597;48.328;7.932;2023-11-19T06:23:58;99560.38;;;11.47;100.00
32083;BME280;18597;48.328;7.932;2023-11-19T06:26:25;99543.25;;;11.50;100.00
32083;BME280;18597;48.328;7.932;2023-11-19T06:28:50;99551.81;;;11.53;100.00
32083;BME280;18597;48.328;7.932;2023-11-19T06:31:17;99547.31;;;11.54;100.00
32083;BME280;18597;48.328;7.932;2023-11-19T06:33:43;99549.84;;;11.55;100.00
32083;BME280;18597;48.328;7.932;2023-11-19T06:36:09;99539.41;;;11.62;100.00
32083;BME280;18597;48.328;7.932;2023-11-19T06:38:35;99552.25;;;11.58;100.00
32083;BME280;18597;48.328;7.932;2023-11-19T06:41:01;99558.59;;;11.67;100.00
32083;BME280;18597;48.328;7.932;2023-11-19T06:43:27;99562.66;;;11.71;100.00
32083;BME280;18597;48.328;7.932;2023-11-19T06:45:54;99543.81;;;11.73;100.00
32083;BME280;18597;48.328;7.932;2023-11-19T06:48:20;99551.69;;;11.74;100.00
32083;BME280;18597;48.328;7.932;2023-11-19T06:50:45;99550.84;;;11.74;100.00
32083;BME280;18597;48.328;7.932;2023-11-19T06:53:11;99561.56;;;11.74;100.00
32083;BME280;18597;48.328;7.932;2023-11-19T06:55:38;99554.06;;;11.77;100.00
32083;BME280;18597;48.328;7.932;2023-11-19T06:58:05;99555.25;;;11.84;100.00
32083;BME280;18597;48.328;7.932;2023-11-19T07:00:31;99564.69;;;11.88;100.00
32083;BME280;18597;48.328;7.932;2023-11-19T07:02:59;99568.78;;;11.83;100.00
32083;BME280;18597;48.328;7.932;2023-11-19T07:05:25;99563.69;;;11.89;100.00
32083;BME280;18597;48.328;7.932;2023-11-19T07:07:51;99562.16;;;11.87;100.00
32083;BME280;18597;48.328;7.932;2023-11-19T07:10:17;99560.75;;;11.83;100.00
32083;BME280;18597;48.328;7.932;2023-11-19T07:12:44;99565.09;;;11.84;100.00
32083;BME280;18597;48.328;7.932;2023-11-19T07:15:10;99568.34;;;11.87;100.00
32083;BME280;18597;48.328;7.932;2023-11-19T07:17:36;99579.19;;;11.86;100.00
32083;BME280;18597;48.328;7.932;2023-11-19T07:20:02;99574.13;;;11.92;100.00
32083;BME280;18597;48.328;7.932;2023-11-19T07:22:28;99582.59;;;11.98;100.00
32083;BME280;18597;48.328;7.932;2023-11-19T07:24:55;99581.16;;;11.93;100.00
32083;BME280;18597;48.328;7.932;2023-11-19T07:27:21;99586.09;;;11.98;100.00
32083;BME280;18597;48.328;7.932;2023-11-19T07:29:49;99598.22;;;11.92;100.00
32083;BME280;18597;48.328;7.932;2023-11-19T07:32:15;99604.69;;;12.00;100.00
32083;BME280;18597;48.328;7.932;2023-11-19T07:34:41;99602.00;;;12.00;100.00
32083;BME280;18597;48.328;7.932;2023-11-19T07:37:07;99609.91;;;12.01;100.00
32083;BME280;18597;48.328;7.932;2023-11-19T07:39:33;99612.88;;;11.98;100.00
32083;BME280;18597;48.328;7.932;2023-11-19T07:42:00;99611.72;;;12.01;100.00
32083;BME280;18597;48.328;7.932;2023-11-19T07:44:26;99604.69;;;12.00;100.00
32083;BME280;18597;48.328;7.932;2023-11-19T07:46:52;99604.81;;;12.08;100.00
32083;BME280;18597;48.328;7.932;2023-11-19T07:49:18;99592.56;;;12.15;100.00
32083;BME280;18597;48.328;7.932;2023-11-19T07:51:43;99605.25;;;12.13;100.00
32083;BME280;18597;48.328;7.932;2023-11-19T07:54:09;99600.75;;;12.13;100.00
32083;BME280;18597;48.328;7.932;2023-11-19T07:56:35;99605.81;;;12.16;100.00
32083;BME280;18597;48.328;7.932;2023-11-19T07:59:02;99592.69;;;12.23;100.00
32083;BME280;18597;48.328;7.932;2023-11-19T08:01:28;99587.78;;;12.28;100.00
32083;BME280;18597;48.328;7.932;2023-11-19T08:03:54;99596.94;;;12.26;100.00
32083;BME280;18597;48.328;7.932;2023-11-19T08:06:20;99603.28;;;12.25;100.00
32083;BME280;18597;48.328;7.932;2023-11-19T08:08:47;99615.25;;;12.30;100.00
32083;BME280;18597;48.328;7.932;2023-11-19T08:11:13;99604.41;;;12.41;100.00
32083;BME280;18597;48.328;7.932;2023-11-19T08:13:40;99617.50;;;12.35;100.00
32083;BME280;18597;48.328;7.932;2023-11-19T08:16:06;99630.75;;;12.36;100.00
32083;BME280;18597;48.328;7.932;2023-11-19T08:18:32;99622.47;;;12.39;100.00
32083;BME280;18597;48.328;7.932;2023-11-19T08:20:58;99612.13;;;12.44;100.00
32083;BME280;18597;48.328;7.932;2023-11-19T08:23:26;99608.75;;;12.42;100.00
32083;BME280;18597;48.328;7.932;2023-11-19T08:25:54;99602.97;;;12.57;100.00
32083;BME280;18597;48.328;7.932;2023-11-19T08:28:20;99615.78;;;12.63;100.00
32083;BME280;18597;48.328;7.932;2023-11-19T08:30:46;99626.19;;;12.66;100.00
32083;BME280;18597;48.328;7.932;2023-11-19T08:33:12;99627.75;;;12.59;100.00
32083;BME280;18597;48.328;7.932;2023-11-19T08:35:37;99616.91;;;12.70;100.00
32083;BME280;18597;48.328;7.932;2023-11-19T08:38:03;99619.81;;;12.86;100.00
32083;BME280;18597;48.328;7.932;2023-11-19T08:40:29;99614.13;;;12.89;100.00
32083;BME280;18597;48.328;7.932;2023-11-19T08:42:56;99611.41;;;12.99;100.00
32083;BME280;18597;48.328;7.932;2023-11-19T08:45:22;99617.75;;;13.08;100.00
32083;BME280;18597;48.328;7.932;2023-11-19T08:47:49;99609.09;;;13.14;100.00
32083;BME280;18597;48.328;7.932;2023-11-19T08:50:16;99608.94;;;13.25;100.00
32083;BME280;18597;48.328;7.932;2023-11-19T08:52:41;99621.78;;;13.31;100.00
32083;BME280;18597;48.328;7.932;2023-11-19T08:55:07;99632.19;;;13.34;100.00
32083;BME280;18597;48.328;7.932;2023-11-19T08:57:35;99623.16;;;13.35;100.00
32083;BME280;18597;48.328;7.932;2023-11-19T09:00:01;99614.19;;;13.44;100.00
32083;BME280;18597;48.328;7.932;2023-11-19T09:02:28;99615.75;;;13.47;100.00
32083;BME280;18597;48.328;7.932;2023-11-19T09:04:54;99608.25;;;13.50;100.00
32083;BME280;18597;48.328;7.932;2023-11-19T09:07:20;99619.28;;;13.47;100.00
32083;BME280;18597;48.328;7.932;2023-11-19T09:09:47;99633.78;;;13.54;100.00
32083;BME280;18597;48.328;7.932;2023-11-19T09:12:13;99645.56;;;13.44;100.00
32083;BME280;18597;48.328;7.932;2023-11-19T09:14:39;99643.66;;;13.26;100.00
32083;BME280;18597;48.328;7.932;2023-11-19T09:17:05;99634.88;;;13.34;100.00
32083;BME280;18597;48.328;7.932;2023-11-19T09:19:32;99648.63;;;13.21;100.00
32083;BME280;18597;48.328;7.932;2023-11-19T09:21:59;99639.44;;;13.14;100.00
32083;BME280;18597;48.328;7.932;2023-11-19T09:24:25;99642.84;;;13.26;100.00
32083;BME280;18597;48.328;7.932;2023-11-19T09:26:51;99641.28;;;13.23;100.00
32083;BME280;18597;48.328;7.932;2023-11-19T09:29:16;99636.88;;;13.32;100.00
32083;BME280;18597;48.328;7.932;2023-11-19T09:31:42;99641.16;;;13.25;100.00
32083;BME280;18597;48.328;7.932;2023-11-19T09:34:08;99635.22;;;13.21;100.00
32083;BME280;18597;48.328;7.932;2023-11-19T09:36:34;99642.84;;;13.26;100.00
32083;BME280;18597;48.328;7.932;2023-11-19T09:39:00;99632.41;;;13.23;100.00
32083;BME280;18597;48.328;7.932;2023-11-19T09:41:27;99633.19;;;13.33;100.00
32083;BME280;18597;48.328;7.932;2023-11-19T09:43:54;99646.03;;;13.29;100.00
32083;BME280;18597;48.328;7.932;2023-11-19T09:46:21;99647.50;;;13.24;100.00
32083;BME280;18597;48.328;7.932;2023-11-19T09:48:53;99657.78;;;13.19;100.00
32083;BME280;18597;48.328;7.932;2023-11-19T09:51:21;99655.84;;;13.11;100.00
32083;BME280;18597;48.328;7.932;2023-11-19T09:53:48;99657.84;;;13.09;100.00
32083;BME280;18597;48.328;7.932;2023-11-19T09:56:15;99652.22;;;13.02;100.00
32083;BME280;18597;48.328;7.932;2023-11-19T09:58:42;99648.00;;;13.00;100.00
32083;BME280;18597;48.328;7.932;2023-11-19T10:01:08;99661.78;;;13.05;100.00
32083;BME280;18597;48.328;7.932;2023-11-19T10:03:38;99650.78;;;13.08;100.00
32083;BME280;18597;48.328;7.932;2023-11-19T10:06:09;99644.28;;;13.11;100.00
32083;BME280;18597;48.328;7.932;2023-11-19T10:08:39;99634.22;;;13.22;100.00
32083;BME280;18597;48.328;7.932;2023-11-19T10:11:06;99646.31;;;13.36;100.00
32083;BME280;18597;48.328;7.932;2023-11-19T10:13:35;99640.16;;;13.26;100.00
32083;BME280;18597;48.328;7.932;2023-11-19T10:16:08;99630.25;;;13.26;100.00
32083;BME280;18597;48.328;7.932;2023-11-19T10:18:35;99640.25;;;13.34;100.00
32083;BME280;18597;48.328;7.932;2023-11-19T10:21:05;99637.06;;;13.11;100.00
32083;BME280;18597;48.328;7.932;2023-11-19T10:23:48;99647.78;;;13.11;100.00
32083;BME280;18597;48.328;7.932;2023-11-19T10:26:14;99656.00;;;13.10;100.00
32083;BME280;18597;48.328;7.932;2023-11-19T10:28:40;99642.28;;;13.13;100.00
32083;BME280;18597;48.328;7.932;2023-11-19T10:31:15;99659.22;;;13.23;100.00
32083;BME280;18597;48.328;7.932;2023-11-19T10:33:41;99646.91;;;13.30;100.00
32083;BME280;18597;48.328;7.932;2023-11-19T10:36:08;99655.84;;;13.21;100.00
32083;BME280;18597;48.328;7.932;2023-11-19T10:38:34;99637.16;;;13.29;100.00
32083;BME280;18597;48.328;7.932;2023-11-19T10:41:00;99633.09;;;13.25;100.00
32083;BME280;18597;48.328;7.932;2023-11-19T10:43:26;99621.69;;;13.23;100.00
32083;BME280;18597;48.328;7.932;2023-11-19T10:45:53;99623.06;;;13.27;100.00
32083;BME280;18597;48.328;7.932;2023-11-19T10:48:19;99625.88;;;13.25;100.00
32083;BME280;18597;48.328;7.932;2023-11-19T10:50:48;99645.22;;;13.29;100.00
32083;BME280;18597;48.328;7.932;2023-11-19T10:53:15;99650.97;;;13.34;100.00
32083;BME280;18597;48.328;7.932;2023-11-19T10:55:42;99635.53;;;13.46;100.00
32083;BME280;18597;48.328;7.932;2023-11-19T10:58:16;99642.31;;;13.68;100.00
32083;BME280;18597;48.328;7.932;2023-11-19T11:00:52;99611.34;;;13.73;100.00
32083;BME280;18597;48.328;7.932;2023-11-19T11:03:21;99609.47;;;13.56;100.00
32083;BME280;18597;48.328;7.932;2023-11-19T11:05:52;99597.38;;;13.70;100.00
32083;BME280;18597;48.328;7.932;2023-11-19T11:08:20;99595.78;;;13.95;100.00
32083;BME280;18597;48.328;7.932;2023-11-19T11:10:54;99591.41;;;14.29;100.00
32083;BME280;18597;48.328;7.932;2023-11-19T11:13:23;99597.34;;;14.41;100.00
32083;BME280;18597;48.328;7.932;2023-11-19T11:15:50;99598.06;;;14.25;100.00
32083;BME280;18597;48.328;7.932;2023-11-19T11:18:17;99598.69;;;14.19;100.00
32083;BME280;18597;48.328;7.932;2023-11-19T11:20:45;99587.31;;;14.25;100.00
32083;BME280;18597;48.328;7.932;2023-11-19T11:23:56;99581.31;;;14.31;100.00
32083;BME280;18597;48.328;7.932;2023-11-19T11:38:03;99572.44;;;14.57;100.00
32083;BME280;18597;48.328;7.932;2023-11-19T11:40:29;99572.50;;;14.65;100.00
32083;BME280;18597;48.328;7.932;2023-11-19T11:42:57;99575.72;;;14.68;100.00
32083;BME280;18597;48.328;7.932;2023-11-19T11:45:43;99574.50;;;14.63;100.00
32083;BME280;18597;48.328;7.932;2023-11-19T11:48:12;99571.94;;;14.53;100.00
32083;BME280;18597;48.328;7.932;2023-11-19T11:50:50;99574.72;;;14.26;100.00
32083;BME280;18597;48.328;7.932;2023-11-19T11:53:18;99582.22;;;14.40;100.00
32083;BME280;18597;48.328;7.932;2023-11-19T11:58:29;99565.56;;;14.54;100.00
32083;BME280;18597;48.328;7.932;2023-11-19T12:00:58;99568.88;;;14.48;100.00
32083;BME280;18597;48.328;7.932;2023-11-19T12:03:28;99555.88;;;14.43;100.00
32083;BME280;18597;48.328;7.932;2023-11-19T12:05:54;99563.41;;;14.40;100.00
32083;BME280;18597;48.328;7.932;2023-11-19T12:08:27;99558.72;;;14.42;100.00
32083;BME280;18597;48.328;7.932;2023-11-19T12:10:55;99552.16;;;14.36;100.00
32083;BME280;18597;48.328;7.932;2023-11-19T12:13:58;99555.41;;;14.22;100.00
32083;BME280;18597;48.328;7.932;2023-11-19T12:16:15;99558.44;;;14.27;100.00
32083;BME280;18597;48.328;7.932;2023-11-19T12:18:41;99557.19;;;14.39;100.00
32083;BME280;18597;48.328;7.932;2023-11-19T12:21:08;99550.81;;;14.40;100.00
32083;BME280;18597;48.328;7.932;2023-11-19T12:23:44;99538.13;;;14.51;100.00
32083;BME280;18597;48.328;7.932;2023-11-19T12:26:36;99545.28;;;14.42;100.00
32083;BME280;18597;48.328;7.932;2023-11-19T12:29:03;99547.41;;;14.30;100.00
32083;BME280;18597;48.328;7.932;2023-11-19T12:31:29;99538.28;;;14.75;100.00
32083;BME280;18597;48.328;7.932;2023-11-19T12:33:56;99518.50;;;15.26;100.00
32083;BME280;18597;48.328;7.932;2023-11-19T12:36:22;99526.59;;;15.35;100.00
32083;BME280;18597;48.328;7.932;2023-11-19T12:38:48;99523.75;;;15.44;100.00
32083;BME280;18597;48.328;7.932;2023-11-19T12:41:14;99528.97;;;15.46;100.00
32083;BME280;18597;48.328;7.932;2023-11-19T12:43:43;99536.41;;;15.60;100.00
32083;BME280;18597;48.328;7.932;2023-11-19T12:46:24;99531.41;;;15.65;100.00
32083;BME280;18597;48.328;7.932;2023-11-19T12:48:52;99533.59;;;15.78;100.00
32083;BME280;18597;48.328;7.932;2023-11-19T12:51:18;99522.16;;;15.76;100.00
32083;BME280;18597;48.328;7.932;2023-11-19T12:53:52;99511.31;;;15.51;100.00
32083;BME280;18597;48.328;7.932;2023-11-19T12:56:23;99515.09;;;15.16;100.00
32083;BME280;18597;48.328;7.932;2023-11-19T12:58:50;99505.28;;;14.99;100.00
32083;BME280;18597;48.328;7.932;2023-11-19T13:01:18;99498.16;;;14.82;100.00
32083;BME280;18597;48.328;7.932;2023-11-19T13:03:45;99493.84;;;14.63;100.00
32083;BME280;18597;48.328;7.932;2023-11-19T13:06:13;99476.28;;;14.77;100.00
32083;BME280;18597;48.328;7.932;2023-11-19T13:08:44;99477.38;;;15.00;100.00